Dallas, Texas
Traffic Map
Current Weather Conditions
Dallas, Texas
Overcast
Overcast
78°
Feels Like: 79°
Wind Chill: 78° Ceiling: 30000
Heat Index: 79° Visibility: 10mi
Dew Point: 58° Wind: 15mph
Humidity: 50% Direction: 110° (ESE)
Pressure: 29.79in Gusts: 0mph
Raw Report DataKDAL 290353Z 11013KT 10SM FEW170 OVC300 26/14 A2979 RMK AO2 SLP082 T02560144
Traffic Incident Summary
Active as of:
Severity:
Category:
InformationThere was an issue retrieving the traffic information for this location. Please try a different location or try again shortly.
Advertisements
Track Severe Weather on mobile